Hawthorne, NV (89415)

6:55 PM PST on December 20, 2014 (GMT -0800)
Fallon Naval Air Station | Change Station
CLOSE
Current Station
Airport
Location: Fallon NAS,
Elevation: 3934 ft
Nearby Weather Stations

Elev 3934 ft 39.42 °N, 118.70 °W | Updated 59 minutes ago

Overcast
Overcast
44 °F
Feels Like 38 °F
N
12
Wind Variable Wind from South

Today
High -- | Low -- °F
--% Chance of Precip.
Yesterday
High -- | Low -- °F
Precip. -- in
7:08 AM 4:36 PM
Waning Crescent, 1% visible
Pressure 30.02 in
Visibility 10.0 miles
Clouds Mostly Cloudy 6000 ft
Mostly Cloudy 9000 ft
Overcast 15000 ft
Windchill 38 °F
Dew Point 39 °F
Humidity 82%
Rainfall 0.04 in
Snow Depth Not available.
UV 0 out of 12
Pollen 1.70 out of 12
Air Quality Not available.
Flu Activity Not available.
METAR KNFL 210156Z 19010KT 10SM BKN060 BKN090 OVC150 07/04 A3011 RMK AO2 SLP164 T00670039

More Conditions Fewer Conditions

Pressure 30.02 in
Visibility 10.0 miles
Clouds Mostly Cloudy 6000 ft
Mostly Cloudy 9000 ft
Overcast 15000 ft
Windchill 38 °F
Dew Point 39 °F
Humidity 82%
Rainfall 0.04 in
Snow Depth Not available.
UV 0 out of 12
Pollen 1.70 out of 12
Air Quality Not available.
Flu Activity Not available.
METAR KNFL 210156Z 19010KT 10SM BKN060 BKN090 OVC150 07/04 A3011 RMK AO2 SLP164 T00670039

More Conditions Fewer Conditions

10-Day Weather Forecast

Almanac

Astronomy

Dec. 20, 2014 Rise Set
Actual Time
Civil Twilight
Nautical Twilight
Astronomical Twilight
Moon
Length of Visible Light
Length of Day
Tomorrow will be .
, % of the Moon is Illuminated

Today's Extremes

State Highs State Lows

Community

WunderPhotos

Upload Photos

1,779,348 photos uploaded!

WunderBlogs® & News

Nearby

Air Quality

  Air Quality AQ Index Pollutant
Not available.

Snow Depth

Station Depth Elevation

Earthquake Activity

City Distance Mag. Time & Date
Minimum magnitude displayed is 2.5.

Coastal Water Temperatures

Place Temperature

Nearby Weather Stations